Austinville, IA

9:43 AM CST on December 19, 2014 (GMT -0600)
IADOT Steamboat Rock (US20) | Change Station
CLOSE
Current Station
Personal Weather Station
Location: Steamboat Rock, IA
Elevation: 1049 ft
Nearby Weather Stations

Elev 1049 ft 42.45 °N, 93.06 °W | Updated 39 minutes ago

Overcast
Overcast
26 °F
Feels Like 18 °F
N
7
Wind Variable Wind from SSE
Gusts 10.0 mph

Today
High -- | Low -- °F
--% Chance of Precip.
Yesterday
High -- | Low -- °F
Precip. -- in
7:37 AM 4:40 PM
Waning Crescent, 7% visible
Pressure 30.26 in
Visibility 5.0 miles
Clouds Overcast 3600 ft
Windchill 18 °F
Dew Point 22 °F
Humidity 87%
Rainfall -999.00 in
Snow Depth Not available.
UV 0 out of 12
Pollen .10 out of 12
Air Quality Not available.
Flu Activity Not available.
METAR KIFA 191535Z AUTO 14007KT 5SM BR OVC036 M03/M04 A3026 RMK AO2 T10271042

More Conditions Fewer Conditions

Pressure 30.26 in
Visibility 5.0 miles
Clouds Overcast 3600 ft
Windchill 18 °F
Dew Point 22 °F
Humidity 87%
Rainfall -999.00 in
Snow Depth Not available.
UV 0 out of 12
Pollen .10 out of 12
Air Quality Not available.
Flu Activity Not available.
METAR KIFA 191535Z AUTO 14007KT 5SM BR OVC036 M03/M04 A3026 RMK AO2 T10271042

More Conditions Fewer Conditions

10-Day Weather Forecast

Almanac

Astronomy

Dec. 19, 2014 Rise Set
Actual Time
Civil Twilight
Nautical Twilight
Astronomical Twilight
Moon
Length of Visible Light
Length of Day
Tomorrow will be .
, % of the Moon is Illuminated

Today's Extremes

State Highs State Lows

Community

WunderPhotos

Upload Photos

1,778,997 photos uploaded!

WunderBlogs® & News

Nearby

Air Quality

  Air Quality AQ Index Pollutant
Not available.

Snow Depth

Station Depth Elevation

Earthquake Activity

City Distance Mag. Time & Date
Minimum magnitude displayed is 2.5.

Coastal Water Temperatures

Place Temperature

Nearby Weather Stations